createdAt,value
2022-09-27T00:19:55.829Z,21.4
2022-09-27T00:58:35.927Z,21.2
2022-09-27T01:29:43.955Z,20.9
2022-09-27T01:52:53.461Z,20.8
2022-09-27T02:16:09.506Z,20.8
2022-09-27T02:47:17.519Z,20.7
2022-09-27T03:10:33.620Z,20.7
2022-09-27T03:41:21.849Z,20.6
2022-09-27T04:20:08.629Z,20.6
2022-09-27T04:35:45.950Z,20.5
2022-09-27T05:14:26.280Z,20.3
2022-09-27T05:37:49.075Z,20.2
2022-09-27T06:01:05.255Z,20.1
2022-09-27T06:32:13.361Z,20
2022-09-27T07:03:08.305Z,19.9
2022-09-27T07:18:32.396Z,20
2022-09-27T07:42:01.659Z,20.1
2022-09-27T08:20:48.476Z,20.2
2022-09-27T08:51:43.114Z,20.4
2022-09-27T09:07:07.182Z,20.5
2022-09-27T09:38:08.496Z,20.7
2022-09-27T10:09:22.925Z,20.8
2022-09-27T10:40:17.548Z,21
2022-09-27T11:11:12.156Z,21.1
2022-09-27T11:42:26.652Z,21.1
2022-09-27T12:05:42.603Z,21.2
2022-09-27T12:21:00.044Z,21.2
2022-09-27T13:07:38.694Z,21.2
2022-09-27T13:38:39.926Z,21.3
2022-09-27T14:09:47.771Z,21.3
2022-09-27T14:48:21.195Z,21.3
2022-09-27T15:03:58.409Z,21.3
2022-09-27T15:27:14.329Z,21.3
2022-09-27T15:58:15.667Z,21.3
2022-09-27T16:21:38.259Z,21.3
2022-09-27T17:00:18.110Z,21.2
2022-09-27T17:31:12.677Z,21.2
2022-09-27T17:54:28.639Z,21.2
2022-09-27T18:41:00.538Z,21.2
2022-09-27T18:56:31.256Z,21.2
2022-09-27T19:27:45.570Z,21.2
2022-09-27T19:43:09.712Z,21.2
2022-09-27T20:21:56.226Z,21.1
2022-09-27T20:45:12.174Z,21.1
2022-09-27T21:23:58.713Z,21.2
2022-09-27T21:47:21.254Z,21.2
2022-09-27T22:33:46.541Z,21.2
2022-09-27T22:56:55.892Z,21.2
2022-09-27T23:20:25.037Z,21.2
2022-09-27T23:51:13.067Z,21.2
